Latest Weather Observations for Kingaroy

IDQ60801

Issued at 12:13 am EST Wednesday 24 April 2019 (issued every 10 minutes, with the page automatically refreshed every 10 minutes)

About weather observations | Map of weather stations | Latest weather observations for QLD | Other Formats
Station Details ID: 040922 Name: KINGAROY AIRPORT Lat: -26.57 Lon: 151.84 Height: 433.67 m
Data from the previous 72 hours. | See also: Recent months at Kingaroy
Date/Time
EST
Temp
°C
App
Temp
°C
Dew
Point
°C
Rel
Hum
%
Delta-T
°C
Wind Press
QNH
hPa
Press
MSL
hPa
Rain since
9am
mm
Dir  Spd
km/h
Gust
km/h
Spd
kts
Gust
kts
24/12:00am 17.2 15.9 15.9 92 0.8 ESE 17 28 9 15 1022.6 1021.1 1.0
 
Date/Time
EST
Temp
°C
App
Temp
°C
Dew
Point
°C
Rel
Hum
%
Delta-T
°C
Wind Press
QNH
hPa
Press
MSL
hPa
Rain since
9am
mm
Dir  Spd
km/h
Gust
km/h
Spd
kts
Gust
kts
23/11:30pm 17.5 16.3 16.2 92 0.8 SE 17 26 9 14 1022.8 1021.3 1.0
23/11:00pm 17.7 16.6 16.4 92 0.8 ESE 17 26 9 14 1023.1 1021.6 1.0
23/10:30pm 17.7 16.7 16.6 93 0.7 ESE 17 26 9 14 1023.5 1022.1 1.0
23/10:00pm 17.5 16.3 16.2 92 0.8 ESE 17 26 9 14 1023.7 1022.2 1.0
23/09:30pm 17.6 16.2 16.5 93 0.7 ESE 19 28 10 15 1023.4 1022.0 1.0
23/09:14pm 17.5 16.1 16.5 94 0.6 ESE 19 26 10 14 1023.5 1022.1 1.0
23/09:03pm 17.3 16.1 16.2 93 0.7 ESE 17 26 9 14 1023.5 1022.1 1.0
23/09:00pm 17.3 16.1 16.2 93 0.7 ESE 17 26 9 14 1023.4 1022.0 1.0
23/08:42pm 17.4 16.6 16.1 92 0.8 ESE 15 20 8 11 1023.9 1022.4 1.0
23/08:30pm 17.3 16.0 15.8 91 0.9 ESE 17 28 9 15 1023.8 1022.3 1.0
23/08:00pm 17.6 15.9 15.8 89 1.1 ESE 19 28 10 15 1023.7 1022.2 1.0
23/07:50pm 17.7 16.1 15.9 89 1.1 ESE 19 30 10 16 1023.4 1022.0 1.0
23/07:30pm 18.0 15.6 16.3 90 1.0 ESE 24 41 13 22 1023.2 1021.8 1.0
23/07:00pm 18.2 16.8 17.0 93 0.7 ESE 20 30 11 16 1023.2 1021.8 1.0
23/06:30pm 18.4 17.7 17.4 94 0.6 ESE 17 26 9 14 1022.8 1021.3 1.0
23/06:00pm 18.5 18.5 17.2 92 0.8 ESE 13 19 7 10 1022.6 1021.1 1.0
23/05:30pm 18.6 17.8 17.1 91 0.9 ESE 17 24 9 13 1022.4 1020.9 1.0
23/05:27pm 18.6 17.7 16.9 90 1.0 ESE 17 24 9 13 1022.3 1020.8 1.0
23/05:00pm 18.8 18.1 17.3 91 0.9 ESE 17 30 9 16 1022.2 1020.7 1.0
23/04:48pm 18.8 17.7 17.3 91 0.9 ESE 19 30 10 16 1022.2 1020.7 1.0
23/04:30pm 19.0 17.7 17.3 90 1.1 ESE 20 33 11 18 1022.0 1020.5 1.0
23/04:00pm 18.9 17.4 17.6 92 0.8 ESE 22 33 12 18 1021.9 1020.4 1.0
23/03:43pm 18.8 16.9 17.6 93 0.7 ESE 24 39 13 21 1021.8 1020.3 1.0
23/03:35pm 18.8 17.6 17.5 92 0.8 SE 20 35 11 19 1021.8 1020.3 1.0
23/03:30pm 18.8 17.7 17.8 94 0.6 SE 20 32 11 17 1021.7 1020.2 1.0
23/03:28pm 19.0 17.7 18.2 95 0.5 ESE 22 33 12 18 1021.7 1020.2 1.0
23/03:19pm 19.0 17.5 17.8 93 0.7 ESE 22 35 12 19 1021.7 1020.2 1.0
23/03:00pm 19.0 18.3 18.2 95 0.5 SE 19 30 10 16 1021.8 1020.3 0.8
23/02:45pm 19.4 18.5 18.2 93 0.8 SE 20 33 11 18 1021.6 1020.1 0.8
23/02:34pm 20.1 20.1 18.9 93 0.8 SE 17 32 9 17 1021.7 1020.2 0.8
23/02:30pm 20.2 19.9 19.2 94 0.6 SE 19 32 10 17 1021.6 1020.1 0.8
23/02:20pm 19.6 19.1 18.6 94 0.6 SE 19 32 10 17 1021.8 1020.3 0.8
23/02:18pm 19.6 19.1 18.6 94 0.6 SE 19 32 10 17 1021.8 1020.3 0.8
23/02:00pm 20.0 20.1 19.2 95 0.5 SE 17 28 9 15 1021.9 1020.4 0.8
23/01:32pm 19.5 19.3 18.5 94 0.6 SE 17 24 9 13 1022.2 1020.7 0.6
23/01:30pm 19.5 19.7 18.5 94 0.6 SE 15 24 8 13 1022.2 1020.7 0.4
23/01:22pm 19.7 19.7 18.9 95 0.5 SE 17 26 9 14 1022.2 1020.7 0.4
23/01:00pm 19.5 19.1 18.8 96 0.4 SE 19 28 10 15 1022.5 1021.0 0.4
23/12:58pm 19.4 18.8 18.4 94 0.6 SSE 19 28 10 15 1022.5 1021.0 0.4
23/12:45pm 19.7 20.1 18.9 95 0.5 SE 15 24 8 13 1022.7 1021.2 0.4
23/12:30pm 19.6 20.3 18.9 96 0.4 ESE 13 24 7 13 1022.8 1021.3 0.4
23/12:12pm 19.5 19.8 18.8 96 0.4 SE 15 24 8 13 1023.1 1021.6 0.2
23/12:06pm 19.4 19.2 18.6 95 0.5 SE 17 24 9 13 1023.1 1021.6 0.2
23/12:00pm 19.2 19.0 18.4 95 0.5 SE 17 24 9 13 1023.2 1021.8 0.2
23/11:48am 19.1 19.1 18.1 94 0.6 SE 15 24 8 13 1023.3 1021.9 0.2
23/11:42am 19.3 19.0 18.3 94 0.6 SE 17 24 9 13 1023.4 1022.0 0.2
23/11:30am 19.3 19.3 18.1 93 0.8 SE 15 22 8 12 1023.4 1022.0 0.2
23/11:22am 19.3 18.8 17.8 91 0.9 SE 17 24 9 13 1023.7 1022.2 0.0
23/11:00am 19.6 18.8 17.0 85 1.6 SE 17 26 9 14 1023.8 1022.3 0.0
23/10:30am 19.3 18.2 17.4 89 1.2 SE 19 30 10 16 1023.9 1022.4 0.0
23/10:00am 19.6 18.8 17.2 86 1.5 SE 17 30 9 16 1024.1 1022.6 0.0
23/09:30am 19.9 19.4 17.7 87 1.4 SE 17 30 9 16 1024.0 1022.5 0.0
23/09:00am 18.9 18.2 17.4 91 0.9 SE 17 24 9 13 1024.2 1022.7 0.2
23/08:30am 18.8 18.2 17.5 92 0.8 SE 17 22 9 12 1024.0 1022.5 0.2
23/08:00am 18.3 17.6 17.3 94 0.6 ESE 17 26 9 14 1024.0 1022.5 0.2
23/07:30am 18.1 18.2 17.5 96 0.4 SE 13 20 7 11 1023.8 1022.3 0.2
23/07:29am 18.2 18.4 17.6 96 0.4 SE 13 20 7 11 1023.7 1022.2 0.2
23/07:14am 17.8 17.1 17.3 97 0.3 SE 17 24 9 13 1023.8 1022.3 0.2
23/07:07am 17.9 17.2 17.3 96 0.4 SE 17 24 9 13 1023.9 1022.4 0.2
23/07:00am 17.9 17.9 17.3 96 0.4 SE 13 24 7 13 1023.8 1022.3 0.2
23/06:45am 17.8 18.1 17.0 95 0.5 SE 11 19 6 10 1023.5 1022.1 0.0
23/06:30am 18.0 18.7 17.0 94 0.6 SE 9 19 5 10 1023.3 1021.9 0.0
23/06:00am 18.0 17.9 17.0 94 0.6 SE 13 22 7 12 1022.9 1021.4 0.0
23/05:30am 18.1 18.0 17.0 93 0.7 SE 13 26 7 14 1022.4 1020.9 0.0
23/05:00am 18.1 17.9 16.8 92 0.8 SE 13 20 7 11 1022.0 1020.5 0.0
23/04:47am 18.1 17.6 16.8 92 0.8 ESE 15 26 8 14 1022.0 1020.5 0.0
23/04:30am 17.9 17.7 16.8 93 0.7 ESE 13 19 7 10 1021.8 1020.3 0.0
23/04:00am 18.0 17.5 16.9 93 0.7 ESE 15 20 8 11 1021.9 1020.4 0.0
23/03:30am 17.9 17.4 16.8 93 0.7 ESE 15 20 8 11 1021.9 1020.4 0.0
23/03:05am 17.8 17.2 16.7 93 0.7 ESE 15 24 8 13 1021.9 1020.4 0.0
23/03:00am 17.9 17.4 16.8 93 0.7 ESE 15 24 8 13 1021.8 1020.3 0.0
23/02:30am 18.0 17.1 16.9 93 0.7 ESE 17 28 9 15 1021.9 1020.4 0.0
23/02:00am 18.0 17.2 17.0 94 0.6 ESE 17 24 9 13 1022.1 1020.6 0.0
23/01:30am 18.1 18.0 17.0 93 0.7 ESE 13 22 7 12 1022.3 1020.8 0.0
23/01:00am 18.1 17.6 17.0 93 0.7 ESE 15 24 8 13 1022.7 1021.2 0.0
23/12:30am 18.3 17.5 17.1 93 0.7 ESE 17 26 9 14 1022.9 1021.4 0.0
23/12:00am 18.1 18.5 17.3 95 0.5 SE 11 17 6 9 1023.1 1021.6 0.0
 
Date/Time
EST
Temp
°C
App
Temp
°C
Dew
Point
°C
Rel
Hum
%
Delta-T
°C
Wind Press
QNH
hPa
Press
MSL
hPa
Rain since
9am
mm
Dir  Spd
km/h
Gust
km/h
Spd
kts
Gust
kts
22/11:51pm 18.1 18.1 17.1 94 0.6 SE 13 19 7 10 1023.2 1021.8 0.0
22/11:42pm 18.1 18.4 17.1 94 0.6 ESE 11 19 6 10 1023.3 1021.9 0.0
22/11:30pm 18.2 18.2 17.2 94 0.6 ESE 13 20 7 11 1023.3 1021.9 0.0
22/11:00pm 18.1 18.1 17.3 95 0.5 ESE 13 20 7 11 1023.4 1022.0 0.0
22/10:30pm 18.1 18.4 17.1 94 0.6 ESE 11 17 6 9 1023.4 1022.0 0.0
22/10:00pm 18.1 18.1 17.1 94 0.6 SE 13 20 7 11 1023.2 1021.8 0.0
22/09:30pm 18.0 17.9 17.0 94 0.6 SE 13 20 7 11 1023.1 1021.6 0.0
22/09:00pm 18.1 18.1 17.3 95 0.5 SE 13 20 7 11 1023.0 1021.5 0.0
22/08:30pm 18.0 19.0 16.9 93 0.7 SE 7 13 4 7 1022.8 1021.3 0.0
22/08:20pm 18.1 18.8 17.0 93 0.7 SE 9 13 5 7 1022.8 1021.3 0.0
22/08:00pm 18.2 18.5 16.9 92 0.8 SE 11 19 6 10 1022.6 1021.1 0.0
22/07:30pm 18.7 19.3 16.9 89 1.1 ESE 9 20 5 11 1022.6 1021.1 0.0
22/07:00pm 18.6 18.4 16.6 88 1.2 ESE 13 19 7 10 1022.0 1020.5 0.0
22/06:30pm 19.0 19.1 16.4 85 1.6 ESE 11 17 6 9 1021.9 1020.4 0.0
22/06:00pm 19.3 19.3 16.2 82 1.9 ESE 11 15 6 8 1021.6 1020.1 0.0
22/05:30pm 19.7 19.2 16.0 79 2.3 ESE 13 20 7 11 1021.4 1019.9 0.0
22/05:00pm 20.3 19.6 15.5 74 2.9 ESE 13 22 7 12 1020.8 1019.3 0.0
22/04:30pm 21.4 19.9 15.3 68 3.7 ESE 17 30 9 16 1020.7 1019.2 0.0
22/04:00pm 21.5 19.2 15.6 69 3.6 SE 22 35 12 19 1020.4 1018.9 0.0
22/03:30pm 23.5 22.3 16.1 63 4.6 ESE 17 28 9 15 1019.9 1018.4 0.0
22/03:00pm 23.3 21.5 15.6 62 4.7 ESE 19 26 10 14 1019.9 1018.4 0.0
22/02:30pm 24.6 23.1 16.3 60 5.2 ESE 19 28 10 15 1020.0 1018.5 0.0
22/02:00pm 24.6 23.3 17.3 64 4.6 SE 20 28 11 15 1020.1 1018.6 0.0
22/01:30pm 22.6 21.1 16.2 67 3.9 ESE 19 30 10 16 1020.5 1019.0 0.0
22/01:00pm 23.7 21.6 15.2 59 5.2 ESE 20 30 11 16 1020.3 1018.8 0.0
22/12:30pm 23.2 21.8 16.5 66 4.2 ESE 19 28 10 15 1020.8 1019.3 0.0
22/12:00pm 23.1 21.6 15.4 62 4.7 ESE 17 24 9 13 1021.0 1019.5 0.0
22/11:30am 23.1 21.9 16.2 65 4.3 ESE 17 24 9 13 1021.6 1020.1 0.0
22/11:00am 22.2 21.4 16.2 69 3.7 ESE 15 26 8 14 1021.9 1020.4 0.0
22/10:36am 21.5 20.0 16.7 74 3.0 ESE 20 32 11 17 1022.1 1020.6 0.0
22/10:30am 20.8 19.2 16.0 74 2.9 ESE 19 32 10 17 1022.2 1020.7 0.0
22/10:00am 20.7 19.4 16.7 78 2.5 ESE 19 28 10 15 1022.4 1020.9 0.0
22/09:00am 18.9 18.2 16.5 86 1.5 SE 15 - 8 - - 1021.0 0.8
22/08:30am 19.2 18.9 17.3 89 1.2 ESE 15 24 8 13 1022.2 1020.7 0.8
22/08:00am 18.4 18.3 16.9 91 0.9 SE 13 20 7 11 1022.1 1020.6 0.8
22/07:30am 17.8 18.1 17.0 95 0.5 SE 11 19 6 10 1021.8 1020.3 0.8
22/07:00am 17.5 17.8 16.9 96 0.4 SE 11 19 6 10 1021.4 1019.9 0.8
22/06:30am 17.2 17.4 16.7 97 0.3 ESE 11 17 6 9 1020.9 1019.4 0.8
22/06:16am 16.9 16.5 16.3 96 0.4 SE 13 19 7 10 1021.0 1019.5 0.8
22/06:00am 16.9 16.8 16.1 95 0.5 SE 11 19 6 10 1020.8 1019.3 0.8
22/05:30am 17.1 17.2 16.5 96 0.4 ESE 11 15 6 8 1020.7 1019.2 0.8
22/05:16am 17.0 17.1 16.4 96 0.4 ESE 11 17 6 9 1020.5 1019.0 0.8
22/05:00am 17.0 17.1 16.4 96 0.4 SE 11 19 6 10 1020.6 1019.1 0.8
22/04:30am 16.8 17.3 16.5 98 0.2 SE 9 15 5 8 1020.7 1019.2 0.8
22/04:22am 16.7 17.4 16.2 97 0.3 SE 7 11 4 6 1020.5 1019.0 0.8
22/04:00am 16.8 16.8 16.2 96 0.4 SSE 11 17 6 9 1020.4 1018.9 0.8
22/03:45am 17.0 16.6 16.2 95 0.5 SE 13 20 7 11 1020.3 1018.8 0.8
22/03:30am 17.3 17.4 16.5 95 0.5 SE 11 17 6 9 1020.4 1018.9 0.8
22/03:00am 17.2 16.8 16.2 94 0.6 ESE 13 17 7 9 1020.5 1019.0 0.8
22/02:30am 17.3 16.7 16.7 96 0.4 ESE 15 24 8 13 1020.4 1018.9 0.8
22/02:00am 17.3 17.0 16.5 95 0.5 ESE 13 22 7 12 1020.5 1019.0 0.8
22/01:30am 17.2 16.6 16.6 96 0.4 ESE 15 22 8 12 1020.6 1019.1 0.8
22/01:00am 17.1 16.5 16.6 97 0.3 ESE 15 22 8 12 1021.3 1019.8 0.8
22/12:54am 17.1 16.5 16.6 97 0.3 ESE 15 20 8 11 1021.4 1019.9 0.8
22/12:30am 17.3 17.6 17.0 98 0.2 ESE 11 20 6 11 1021.8 1020.3 0.4
22/12:26am 17.2 17.5 16.9 98 0.2 ESE 11 17 6 9 1021.8 1020.3 0.4
22/12:12am 17.3 17.9 16.8 97 0.3 SE 9 17 5 9 1022.0 1020.5 0.2
22/12:00am 17.3 17.5 16.8 97 0.3 ESE 11 17 6 9 1022.1 1020.6 0.2
 
Date/Time
EST
Temp
°C
App
Temp
°C
Dew
Point
°C
Rel
Hum
%
Delta-T
°C
Wind Press
QNH
hPa
Press
MSL
hPa
Rain since
9am
mm
Dir  Spd
km/h
Gust
km/h
Spd
kts
Gust
kts
21/11:58pm 17.3 17.5 16.8 97 0.3 ESE 11 17 6 9 1022.1 1020.6 0.2
21/11:57pm 17.3 17.5 16.8 97 0.3 ESE 11 17 6 9 1022.1 1020.6 0.2
21/11:30pm 17.4 17.5 16.6 95 0.5 SE 11 19 6 10 1022.6 1021.1 0.0
21/11:00pm 17.6 17.2 16.3 92 0.8 SE 13 24 7 13 1022.5 1021.0 0.0
21/10:30pm 17.8 17.3 16.0 89 1.1 SE 13 20 7 11 1022.6 1021.1 0.0
21/10:00pm 17.5 16.8 15.5 88 1.2 SE 13 19 7 10 1022.8 1021.3 0.0
21/09:42pm 17.8 17.0 15.2 85 1.5 SE 13 20 7 11 1022.9 1021.4 0.0
21/09:30pm 17.9 17.2 15.3 85 1.6 SE 13 20 7 11 1023.0 1021.5 0.0
21/09:00pm 17.6 16.8 15.0 85 1.5 ESE 13 22 7 12 1022.7 1021.2 0.0
21/08:30pm 17.7 16.7 14.6 82 1.8 SE 13 19 7 10 1022.5 1021.0 0.0
21/08:00pm 17.8 17.7 14.9 83 1.7 ESE 9 13 5 7 1022.4 1020.9 0.0
21/07:30pm 16.9 17.4 14.9 88 1.2 ESE 6 9 3 5 1022.1 1020.6 0.0
21/07:00pm 17.0 17.0 14.3 84 1.6 ESE 7 11 4 6 1021.9 1020.4 0.0
21/06:30pm 18.5 18.3 14.8 79 2.2 SE 9 15 5 8 1021.6 1020.1 0.0
21/06:00pm 18.9 17.5 14.6 76 2.5 ESE 15 20 8 11 1021.5 1020.0 0.0
21/05:30pm 19.6 18.5 15.3 76 2.6 ESE 15 22 8 12 1021.3 1019.8 0.0
21/05:00pm 19.9 19.4 16.0 78 2.4 ESE 13 20 7 11 1020.9 1019.4 0.0
21/04:30pm 20.2 19.1 16.4 79 2.3 E 17 24 9 13 1020.7 1019.2 0.0
21/04:08pm 21.0 18.7 15.8 72 3.2 ESE 22 44 12 24 1020.4 1018.9 0.0
21/04:00pm 21.1 20.6 16.9 77 2.6 ESE 15 24 8 13 1020.2 1018.7 0.0
21/03:30pm 21.6 20.5 16.3 72 3.3 ESE 17 24 9 13 1020.2 1018.7 0.0
21/03:00pm 22.6 20.4 15.9 66 4.1 ESE 22 33 12 18 1020.0 1018.5 0.0
21/02:30pm 22.1 19.2 16.1 69 3.7 ESE 26 39 14 21 1020.2 1018.7 0.0
21/02:00pm 23.4 20.8 16.0 63 4.6 ESE 24 35 13 19 1020.0 1018.5 0.0
21/01:30pm 23.1 21.3 15.9 64 4.4 ESE 20 32 11 17 1020.2 1018.7 0.0
21/01:00pm 22.8 21.3 16.8 69 3.7 SE 20 32 11 17 1020.6 1019.1 0.0
21/12:30pm 23.6 21.6 15.4 60 5.0 ESE 20 33 11 18 1020.8 1019.3 0.0
21/12:00pm 23.8 22.2 16.6 64 4.5 ESE 20 30 11 16 1021.3 1019.8 0.0
21/11:30am 22.8 20.5 16.6 68 3.9 ESE 24 39 13 21 1021.9 1020.4 0.0
21/11:28am 22.9 20.4 16.2 66 4.1 ESE 24 39 13 21 1021.9 1020.4 0.0
21/11:09am 22.1 21.1 17.5 75 2.9 ESE 19 35 10 19 1022.1 1020.6 0.0
21/11:08am 22.3 21.5 17.9 76 2.8 ESE 19 35 10 19 1022.1 1020.6 0.0
21/11:00am 21.4 20.0 17.0 76 2.7 ESE 20 35 11 19 1022.1 1020.6 0.0
21/10:52am 21.3 19.5 16.9 76 2.7 ESE 22 32 12 17 1022.2 1020.7 0.0
21/10:43am 21.6 20.5 18.6 83 1.9 ESE 22 41 12 22 1022.2 1020.7 0.0
21/10:30am 20.7 19.4 17.3 81 2.1 ESE 20 37 11 20 1022.2 1020.7 0.0
21/10:00am 19.5 18.8 17.3 87 1.4 ESE 17 32 9 17 1022.2 1020.7 0.0
21/09:30am 19.0 17.6 17.1 89 1.2 ESE 20 30 11 16 1022.6 1021.1 0.0
21/09:24am 19.2 17.4 17.0 87 1.4 ESE 22 33 12 18 1022.7 1021.2 0.0
21/09:22am 19.4 17.9 16.8 85 1.6 ESE 20 33 11 18 1022.7 1021.2 0.0
21/09:01am 19.7 18.4 16.7 83 1.8 SE 19 30 10 16 1022.6 1021.1 0.0
21/09:00am 19.7 18.3 16.5 82 2.0 SE 19 30 10 16 1022.6 1021.1 0.8
21/08:52am 20.1 19.1 16.7 81 2.1 ESE 17 30 9 16 1022.6 1021.1 0.8
21/08:30am 20.0 18.9 17.2 84 1.7 SE 19 28 10 15 1022.8 1021.3 0.8
21/08:00am 18.9 18.1 17.0 89 1.2 SE 17 28 9 15 1022.8 1021.3 0.8
21/07:37am 19.2 18.5 17.3 89 1.2 ESE 17 28 9 15 1022.4 1020.9 0.8
21/07:30am 18.9 18.1 17.2 90 1.1 ESE 17 28 9 15 1022.3 1020.8 0.8
21/07:09am 18.7 18.8 17.4 92 0.8 ESE 13 22 7 12 1022.2 1020.7 0.8
21/07:00am 18.6 18.3 17.4 93 0.7 ESE 15 26 8 14 1022.3 1020.8 0.8
21/06:30am 18.2 17.1 17.4 95 0.5 ESE 19 28 10 15 1022.0 1020.5 0.8
21/06:00am 18.3 18.1 17.5 95 0.5 ESE 15 24 8 13 1021.6 1020.1 0.8
21/05:40am 18.2 17.9 17.4 95 0.5 SE 15 22 8 12 1021.3 1019.8 0.8
21/05:30am 18.3 18.1 17.5 95 0.5 SE 15 22 8 12 1021.1 1019.6 0.8
21/05:00am 18.1 17.8 17.3 95 0.5 ESE 15 26 8 14 1020.8 1019.3 0.8
21/04:56am 18.2 17.5 17.4 95 0.5 SE 17 26 9 14 1020.8 1019.3 0.8
21/04:30am 18.2 18.0 17.6 96 0.4 ESE 15 22 8 12 1020.7 1019.2 0.8
21/04:17am 18.3 17.8 17.8 97 0.3 ESE 17 24 9 13 1020.5 1019.0 0.8
21/04:00am 18.3 18.1 17.7 96 0.4 ESE 15 24 8 13 1020.6 1019.1 0.8
21/03:30am 18.2 17.2 17.6 96 0.4 ESE 19 26 10 14 1020.5 1019.0 0.8
21/03:19am 18.2 17.1 17.4 95 0.5 ESE 19 26 10 14 1020.5 1019.0 0.8
21/03:00am 18.4 17.9 17.8 96 0.4 ESE 17 26 9 14 1020.7 1019.2 0.8
21/02:30am 18.5 17.7 17.9 96 0.4 ESE 19 28 10 15 1020.7 1019.2 0.6
21/02:00am 18.5 17.5 17.5 94 0.6 ESE 19 28 10 15 1020.6 1019.1 0.6
21/01:30am 18.6 17.4 17.6 94 0.6 ESE 20 28 11 15 1020.8 1019.3 0.6
21/01:00am 18.7 17.8 17.7 94 0.6 ESE 19 28 10 15 1021.1 1019.6 0.6
21/12:30am 18.8 18.4 18.0 95 0.5 SE 17 26 9 14 1021.6 1020.1 0.6

Other formats

Comma delimited format used in spreadsheet applications
http://www.bom.gov.au/fwo/IDQ60801/IDQ60801.94549.axf

JavaScript Object Notation format (JSON) in row-major order
http://www.bom.gov.au/fwo/IDQ60801/IDQ60801.94549.json

Data quality

Most of these data are generated automatically and are frequently updated. Quality checks on data are not normally performed. It is possible for incorrect values to appear. Refer to information at About Latest Weather Observations and please check the disclaimer before using these data.